Time;durP1;ratioP1;P1;durP2;ratioP2;P2;SDS_P1;SDS_P2;PMS_P1;PMS_P2;Temp;Humidity;BMP_temperature;BMP_pressure;BME280_temperature;BME280_humidity;BME280_pressure;Samples;Min_cycle;Max_cycle;Signal;HPM_P1;HPM_P2
2022/10/13 00:01:27;;;;;;;43.67;17.45;;;10.20;99.90;;;;;;5136025;27;20054;-81
2022/10/13 00:03:53;;;;;;;33.10;17.10;;;10.20;99.90;;;;;;5154643;27;20042;-81
2022/10/13 00:06:22;;;;;;;33.53;16.70;;;10.20;99.90;;;;;;5154728;27;20103;-81
2022/10/13 00:08:49;;;;;;;26.60;15.43;;;10.20;99.90;;;;;;5136227;27;20046;-80
2022/10/13 00:11:22;;;;;;;31.73;17.67;;;10.20;99.90;;;;;;5135859;27;20047;-80
2022/10/13 00:13:49;;;;;;;28.98;15.93;;;10.20;99.90;;;;;;5136014;27;20050;-79
2022/10/13 00:16:18;;;;;;;28.95;16.38;;;10.20;99.90;;;;;;5154671;27;20091;-79
2022/10/13 00:18:45;;;;;;;35.40;17.13;;;10.20;99.90;;;;;;5154122;27;20049;-79
2022/10/13 00:21:14;;;;;;;32.08;17.00;;;10.20;99.90;;;;;;5135693;27;20050;-80
2022/10/13 00:23:40;;;;;;;31.42;16.65;;;10.20;99.90;;;;;;5136068;27;20055;-79
2022/10/13 00:26:10;;;;;;;35.10;16.85;;;10.30;99.90;;;;;;5135687;27;20556;-80
2022/10/13 00:28:37;;;;;;;35.55;18.42;;;10.30;99.90;;;;;;5154324;27;20075;-79
2022/10/13 00:31:03;;;;;;;30.80;17.35;;;10.30;99.90;;;;;;5135271;27;20055;-80
2022/10/13 00:33:29;;;;;;;30.02;17.08;;;10.30;99.90;;;;;;5135790;27;20054;-80
2022/10/13 00:35:55;;;;;;;37.17;18.50;;;10.30;99.90;;;;;;5135049;27;20086;-80
2022/10/13 00:38:22;;;;;;;33.08;18.15;;;10.30;99.90;;;;;;5153841;27;20394;-79
2022/10/13 00:40:52;;;;;;;33.92;17.70;;;10.30;99.90;;;;;;5135382;27;20097;-79
2022/10/13 00:43:22;;;;;;;33.28;17.75;;;10.30;99.90;;;;;;5135462;27;20505;-79
2022/10/13 00:45:49;;;;;;;34.30;18.15;;;10.30;99.90;;;;;;5118924;27;20046;-79
2022/10/13 00:48:23;;;;;;;34.85;17.63;;;10.30;99.90;;;;;;5135337;27;20490;-80
2022/10/13 00:50:49;;;;;;;31.85;17.55;;;10.30;99.90;;;;;;5135299;27;20053;-79
2022/10/13 00:53:19;;;;;;;35.42;17.13;;;10.30;99.90;;;;;;5136325;27;20402;-79
2022/10/13 00:55:45;;;;;;;34.67;17.17;;;10.40;99.90;;;;;;5153678;27;20106;-79
2022/10/13 00:58:15;;;;;;;33.20;17.80;;;10.40;99.90;;;;;;5153387;27;20149;-79
2022/10/13 01:00:45;;;;;;;39.88;18.30;;;10.40;99.90;;;;;;5153196;27;20055;-80
2022/10/13 01:03:11;;;;;;;31.05;16.52;;;10.40;99.90;;;;;;5153395;27;20059;-80
2022/10/13 01:05:39;;;;;;;34.42;17.55;;;10.40;99.90;;;;;;5153489;27;20046;-80
2022/10/13 01:26:34;;;;;;;36.20;18.77;;;10.30;99.90;;;;;;5153238;27;20095;-79
2022/10/13 01:29:24;;;;;;;38.58;17.05;;;10.30;99.90;;;;;;5134810;27;20042;-81
2022/10/13 01:32:14;;;;;;;34.28;19.10;;;10.30;99.90;;;;;;5152806;27;20057;-80
2022/10/13 01:35:03;;;;;;;31.92;16.65;;;10.30;99.90;;;;;;5152517;27;20042;-81
2022/10/13 01:38:10;;;;;;;34.42;19.88;;;10.30;99.90;;;;;;5133786;27;20042;-81
2022/10/13 01:40:46;;;;;;;36.15;19.17;;;10.30;99.90;;;;;;5134250;27;20066;-80
2022/10/13 01:43:24;;;;;;;34.75;19.27;;;10.30;99.90;;;;;;5153205;27;20607;-80
2022/10/13 01:46:01;;;;;;;36.08;18.38;;;10.30;99.90;;;;;;5152748;27;20074;-80
2022/10/13 01:48:28;;;;;;;40.13;21.42;;;10.20;99.90;;;;;;5152016;27;20046;-81
2022/10/13 01:50:57;;;;;;;34.38;19.02;;;10.20;99.90;;;;;;5152747;27;20043;-80
2022/10/13 01:53:23;;;;;;;33.60;19.25;;;10.20;99.90;;;;;;5134008;27;20047;-81
2022/10/13 01:55:56;;;;;;;33.67;18.98;;;10.20;99.90;;;;;;5152284;27;20141;-80
2022/10/13 01:58:25;;;;;;;37.42;17.73;;;10.20;99.90;;;;;;5153122;27;20503;-79
2022/10/13 02:01:12;;;;;;;36.13;20.95;;;10.30;99.90;;;;;;5134199;27;20062;-79
2022/10/13 02:04:19;;;;;;;32.45;17.20;;;10.30;99.90;;;;;;5134147;27;20109;-80
2022/10/13 02:06:51;;;;;;;40.50;20.15;;;10.20;99.90;;;;;;5116678;27;20558;-81
2022/10/13 02:09:42;;;;;;;32.47;18.65;;;10.30;99.90;;;;;;5152827;27;20161;-80
2022/10/13 02:12:13;;;;;;;36.70;20.08;;;10.30;99.90;;;;;;5134564;27;20054;-80
2022/10/13 02:14:43;;;;;;;39.00;18.23;;;10.30;99.90;;;;;;5155397;27;20050;-80
2022/10/13 02:17:09;;;;;;;39.45;19.27;;;10.30;99.90;;;;;;5133793;27;20054;-80
2022/10/13 02:19:37;;;;;;;35.63;19.63;;;10.30;99.90;;;;;;5134275;27;20051;-81
2022/10/13 02:22:05;;;;;;;39.88;22.65;;;10.30;99.90;;;;;;5152526;27;20038;-80
2022/10/13 02:24:32;;;;;;;42.08;19.40;;;10.30;99.90;;;;;;5152376;27;20061;-80
2022/10/13 02:26:58;;;;;;;39.10;20.17;;;10.30;99.90;;;;;;5153437;27;20107;-80
2022/10/13 02:29:24;;;;;;;38.78;19.42;;;10.30;99.90;;;;;;5133602;27;20066;-80
2022/10/13 02:31:52;;;;;;;42.90;22.40;;;10.30;99.90;;;;;;5133677;27;20050;-81
2022/10/13 02:34:18;;;;;;;43.35;20.33;;;10.30;99.90;;;;;;5133856;27;20394;-81
2022/10/13 02:36:44;;;;;;;34.35;18.92;;;10.30;99.90;;;;;;5152171;27;20517;-81
2022/10/13 02:39:10;;;;;;;33.63;19.08;;;10.30;99.90;;;;;;5129700;28;20506;-81
2022/10/13 02:41:37;;;;;;;33.60;18.77;;;10.30;99.90;;;;;;5114268;28;20558;-81
2022/10/13 02:44:03;;;;;;;42.45;20.70;;;10.30;99.90;;;;;;5131556;28;20078;-81
2022/10/13 02:46:29;;;;;;;32.53;20.73;;;10.30;99.90;;;;;;5131212;28;20856;-81
2022/10/13 02:48:55;;;;;;;41.17;21.23;;;10.30;99.90;;;;;;5129981;28;20047;-80
2022/10/13 02:51:21;;;;;;;40.45;20.80;;;10.30;99.90;;;;;;5131687;28;20059;-80
2022/10/13 02:53:47;;;;;;;38.70;22.10;;;10.30;99.90;;;;;;5131449;28;20134;-80
2022/10/13 02:56:13;;;;;;;39.70;19.88;;;10.30;99.90;;;;;;5131605;27;20118;-80
2022/10/13 02:58:39;;;;;;;36.75;19.77;;;10.20;99.90;;;;;;5130804;27;20126;-81
2022/10/13 03:01:05;;;;;;;39.13;20.73;;;10.20;99.90;;;;;;5133521;27;20110;-81
2022/10/13 03:03:31;;;;;;;42.03;21.00;;;10.20;99.90;;;;;;5134056;27;20138;-81
2022/10/13 03:05:57;;;;;;;38.03;19.77;;;10.20;99.90;;;;;;5133899;27;20192;-81
2022/10/13 03:08:23;;;;;;;46.47;22.33;;;10.20;99.90;;;;;;5133754;27;20054;-81
2022/10/13 03:10:49;;;;;;;41.83;21.05;;;10.20;99.90;;;;;;5134229;27;20040;-81
2022/10/13 03:13:15;;;;;;;46.55;22.23;;;10.20;99.90;;;;;;5117150;27;20521;-81
2022/10/13 03:15:41;;;;;;;42.03;22.73;;;10.20;99.90;;;;;;5133719;27;20398;-80
2022/10/13 03:18:07;;;;;;;40.95;21.85;;;10.20;99.90;;;;;;5137085;27;20050;-81
2022/10/13 03:20:33;;;;;;;45.13;21.35;;;10.20;99.90;;;;;;5116473;27;20490;-81
2022/10/13 03:22:58;;;;;;;41.72;22.00;;;10.20;99.90;;;;;;5134991;27;20139;-80
2022/10/13 03:25:24;;;;;;;47.08;22.95;;;10.20;99.90;;;;;;5134644;27;20062;-80
2022/10/13 03:27:50;;;;;;;39.05;21.17;;;10.20;99.90;;;;;;5133667;27;20047;-80
2022/10/13 03:30:16;;;;;;;41.05;21.73;;;10.20;99.90;;;;;;5133366;27;20112;-80
2022/10/13 03:32:42;;;;;;;38.72;21.77;;;10.20;99.90;;;;;;5134871;27;20526;-80
2022/10/13 03:35:08;;;;;;;37.58;21.73;;;10.20;99.90;;;;;;5115890;27;20075;-80
2022/10/13 03:37:34;;;;;;;39.80;19.85;;;10.20;99.90;;;;;;5099465;27;20100;-80
2022/10/13 03:40:00;;;;;;;43.97;21.27;;;10.20;99.90;;;;;;5155523;27;20046;-81
2022/10/13 03:42:26;;;;;;;38.88;20.65;;;10.20;99.90;;;;;;5155624;27;20054;-81
2022/10/13 03:44:52;;;;;;;42.63;23.08;;;10.20;99.90;;;;;;5136823;27;20460;-80
2022/10/13 03:47:18;;;;;;;35.67;20.27;;;10.20;99.90;;;;;;5155535;27;20492;-81
2022/10/13 03:49:44;;;;;;;39.60;21.13;;;10.20;99.90;;;;;;5136248;27;20043;-81
2022/10/13 03:52:09;;;;;;;36.42;20.58;;;10.30;99.90;;;;;;5154667;27;20051;-81
2022/10/13 03:54:35;;;;;;;39.97;21.77;;;10.20;99.90;;;;;;5155134;27;20051;-81
2022/10/13 03:57:01;;;;;;;40.38;21.88;;;10.20;99.90;;;;;;5154833;27;20113;-81
2022/10/13 03:59:28;;;;;;;38.20;22.27;;;10.20;99.90;;;;;;5136330;27;20046;-81
2022/10/13 04:01:54;;;;;;;37.28;20.35;;;10.30;99.90;;;;;;5136260;27;20119;-81
2022/10/13 04:04:20;;;;;;;41.28;22.75;;;10.30;99.90;;;;;;5136285;27;20042;-81
2022/10/13 04:06:46;;;;;;;40.65;21.42;;;10.30;99.90;;;;;;5154291;27;20387;-81
2022/10/13 04:09:12;;;;;;;36.10;18.48;;;10.30;99.90;;;;;;5154696;27;20111;-81
2022/10/13 04:11:38;;;;;;;36.45;19.38;;;10.30;99.90;;;;;;5135824;27;20133;-81
2022/10/13 04:14:04;;;;;;;46.47;21.38;;;10.30;99.90;;;;;;5136457;27;20130;-81
2022/10/13 04:16:31;;;;;;;36.85;20.35;;;10.30;99.90;;;;;;5135874;27;20121;-81
2022/10/13 04:18:58;;;;;;;38.35;21.38;;;10.30;99.90;;;;;;5154161;27;20576;-80
2022/10/13 04:21:25;;;;;;;44.00;23.63;;;10.30;99.90;;;;;;5135884;27;20046;-80
2022/10/13 04:23:56;;;;;;;35.47;21.67;;;10.30;99.90;;;;;;5135440;27;20055;-80
2022/10/13 04:26:24;;;;;;;36.55;20.55;;;10.40;99.90;;;;;;5135764;27;20055;-80
2022/10/13 04:28:51;;;;;;;45.90;24.58;;;10.40;99.90;;;;;;5136274;27;20398;-81
2022/10/13 04:31:18;;;;;;;37.05;21.00;;;10.40;99.90;;;;;;5119341;27;20114;-81
2022/10/13 04:33:44;;;;;;;47.22;24.35;;;10.40;99.90;;;;;;5118923;27;20051;-80
2022/10/13 04:36:12;;;;;;;43.72;23.75;;;10.40;99.90;;;;;;5154428;27;20091;-80
2022/10/13 04:38:39;;;;;;;41.10;23.15;;;10.40;99.90;;;;;;5153596;27;20494;-80
2022/10/13 04:41:06;;;;;;;43.45;23.55;;;10.40;99.90;;;;;;5118572;27;20401;-80
2022/10/13 04:43:32;;;;;;;40.53;22.48;;;10.40;99.90;;;;;;5153582;27;20133;-81
2022/10/13 04:46:07;;;;;;;46.63;26.45;;;10.40;99.90;;;;;;5135740;27;20153;-80
2022/10/13 04:48:33;;;;;;;43.00;25.52;;;10.40;99.90;;;;;;5135314;27;20046;-81
2022/10/13 04:51:05;;;;;;;52.13;25.98;;;10.40;99.90;;;;;;5134879;27;20482;-81
2022/10/13 04:53:31;;;;;;;41.67;23.40;;;10.40;99.90;;;;;;5153873;27;20072;-81
2022/10/13 04:56:07;;;;;;;39.80;25.02;;;10.40;99.90;;;;;;5156119;27;20046;-81
2022/10/13 04:58:34;;;;;;;45.72;26.38;;;10.40;99.90;;;;;;5131822;27;20054;-81
2022/10/13 05:01:00;;;;;;;44.47;25.88;;;10.50;99.90;;;;;;5149759;27;20042;-80
2022/10/13 05:03:26;;;;;;;40.13;23.98;;;10.50;99.90;;;;;;5154649;27;20046;-81
2022/10/13 05:05:52;;;;;;;46.42;25.63;;;10.50;99.90;;;;;;5155084;27;20103;-80
2022/10/13 05:08:18;;;;;;;63.65;28.30;;;10.50;99.90;;;;;;5153497;27;20055;-81
2022/10/13 05:10:59;;;;;;;46.10;24.83;;;10.50;99.90;;;;;;5134996;27;20055;-80
2022/10/13 05:13:26;;;;;;;49.10;26.50;;;10.50;99.90;;;;;;5138334;27;20050;-80
2022/10/13 05:15:52;;;;;;;48.38;27.00;;;10.50;99.90;;;;;;5158189;27;20043;-80
2022/10/13 05:18:18;;;;;;;47.35;26.63;;;10.50;99.90;;;;;;5140700;27;20054;-81
2022/10/13 05:20:45;;;;;;;51.28;25.83;;;10.50;99.90;;;;;;5137436;27;20042;-81
2022/10/13 05:23:12;;;;;;;52.20;27.60;;;10.50;99.90;;;;;;5134722;27;20076;-79
2022/10/13 05:25:38;;;;;;;47.95;26.13;;;10.60;99.90;;;;;;5153193;27;20114;-80
2022/10/13 05:28:05;;;;;;;48.83;27.42;;;10.50;99.90;;;;;;5134835;27;20100;-80
2022/10/13 05:30:32;;;;;;;46.67;28.58;;;10.60;99.90;;;;;;5117380;27;20291;-81
2022/10/13 05:32:58;;;;;;;43.92;27.10;;;10.60;99.90;;;;;;5153618;27;20649;-80
2022/10/13 05:35:24;;;;;;;50.60;28.42;;;10.60;99.90;;;;;;5153227;27;20394;-79
2022/10/13 05:37:50;;;;;;;50.40;27.48;;;10.60;99.90;;;;;;5134340;27;20614;-79
2022/10/13 05:40:17;;;;;;;46.05;27.55;;;10.60;99.90;;;;;;5152471;27;20047;-80
2022/10/13 05:42:42;;;;;;;59.35;31.42;;;10.60;99.90;;;;;;5134416;27;20133;-79
2022/10/13 05:45:09;;;;;;;51.05;28.92;;;10.60;99.90;;;;;;5152464;27;20417;-80
2022/10/13 05:47:35;;;;;;;51.28;27.70;;;10.60;99.90;;;;;;5153103;27;20046;-80
2022/10/13 05:50:02;;;;;;;54.75;28.98;;;10.60;99.90;;;;;;5134848;27;20153;-80
2022/10/13 05:52:32;;;;;;;49.67;28.52;;;10.60;99.90;;;;;;5135296;27;20042;-80
2022/10/13 05:55:01;;;;;;;59.17;29.20;;;10.50;99.90;;;;;;5134632;27;20047;-80
2022/10/13 05:57:30;;;;;;;53.17;27.48;;;10.60;99.90;;;;;;5152774;27;20043;-79
2022/10/13 06:00:07;;;;;;;50.30;28.10;;;10.50;99.90;;;;;;5152702;27;20157;-79
2022/10/13 06:02:40;;;;;;;53.38;29.60;;;10.60;99.90;;;;;;5133728;27;20479;-78
2022/10/13 06:05:11;;;;;;;49.88;28.38;;;10.60;99.90;;;;;;5152739;27;20410;-79
2022/10/13 06:07:37;;;;;;;59.45;30.33;;;10.60;99.90;;;;;;5152527;27;20054;-80
2022/10/13 06:10:03;;;;;;;53.85;28.48;;;10.60;99.90;;;;;;5152423;27;20043;-78
2022/10/13 06:12:29;;;;;;;52.00;28.38;;;10.60;99.90;;;;;;5152550;27;20054;-80
2022/10/13 06:14:55;;;;;;;57.90;29.95;;;10.60;99.90;;;;;;5152692;27;20107;-80
2022/10/13 06:17:21;;;;;;;49.25;28.08;;;10.60;99.90;;;;;;5134032;27;20179;-80
2022/10/13 06:19:47;;;;;;;50.70;30.52;;;10.60;99.90;;;;;;5116684;27;20059;-80
2022/10/13 06:22:13;;;;;;;48.65;28.30;;;10.70;99.90;;;;;;5133944;27;20047;-80
2022/10/13 06:24:39;;;;;;;53.72;28.60;;;10.70;99.90;;;;;;5133625;27;20398;-80
2022/10/13 06:27:05;;;;;;;56.35;29.25;;;10.70;99.90;;;;;;5152403;27;20038;-80
2022/10/13 06:29:32;;;;;;;59.05;30.98;;;10.70;99.90;;;;;;5152391;27;20046;-80
2022/10/13 06:31:58;;;;;;;51.45;28.45;;;10.70;99.90;;;;;;5152212;27;20125;-80
2022/10/13 06:34:23;;;;;;;50.97;28.05;;;10.70;99.90;;;;;;5135979;27;20191;-80
2022/10/13 06:36:49;;;;;;;55.08;31.13;;;10.70;99.90;;;;;;5138014;27;20061;-81
2022/10/13 06:39:15;;;;;;;50.88;28.33;;;10.70;99.90;;;;;;5155834;27;20141;-80
2022/10/13 06:41:41;;;;;;;43.92;27.30;;;10.80;99.90;;;;;;5137669;27;20052;-81
2022/10/13 06:44:07;;;;;;;52.58;29.67;;;10.80;99.90;;;;;;5156135;27;20133;-80
2022/10/13 06:46:33;;;;;;;51.47;29.15;;;10.80;99.90;;;;;;5156464;27;20051;-81
2022/10/13 06:48:59;;;;;;;54.03;28.92;;;10.90;99.90;;;;;;5155973;27;20051;-81
2022/10/13 06:51:25;;;;;;;51.95;29.50;;;10.90;99.90;;;;;;5155949;27;20051;-80
2022/10/13 06:53:51;;;;;;;51.50;29.58;;;10.90;99.90;;;;;;5156808;27;20054;-80
2022/10/13 06:56:17;;;;;;;54.53;28.52;;;10.90;99.90;;;;;;5138570;27;20082;-80
2022/10/13 06:58:43;;;;;;;51.47;28.02;;;11.00;99.90;;;;;;5157539;27;20050;-81
2022/10/13 07:01:11;;;;;;;55.88;31.20;;;11.00;99.90;;;;;;5155704;27;20395;-81
2022/10/13 07:03:37;;;;;;;47.65;28.42;;;11.00;99.90;;;;;;5156338;27;20046;-81
2022/10/13 07:06:05;;;;;;;49.50;29.30;;;11.10;99.90;;;;;;5137271;27;20047;-81
2022/10/13 07:08:31;;;;;;;66.10;33.95;;;11.10;99.90;;;;;;5155761;27;20054;-81
2022/10/13 07:10:57;;;;;;;52.58;29.75;;;11.10;99.90;;;;;;5156125;27;20046;-81
2022/10/13 07:13:23;;;;;;;51.13;28.50;;;11.20;99.90;;;;;;5155999;27;20046;-81
2022/10/13 07:15:49;;;;;;;52.17;28.80;;;11.20;99.90;;;;;;5120070;27;20399;-81
2022/10/13 07:18:15;;;;;;;46.95;29.25;;;11.20;99.90;;;;;;5156416;27;20042;-81
2022/10/13 07:20:41;;;;;;;53.00;28.75;;;11.30;99.90;;;;;;5155653;27;20078;-81
2022/10/13 07:23:07;;;;;;;49.42;28.33;;;11.30;99.90;;;;;;5137191;27;20557;-82
2022/10/13 07:25:33;;;;;;;45.15;26.73;;;11.30;99.90;;;;;;5137368;27;20117;-82
2022/10/13 07:27:59;;;;;;;52.47;30.45;;;11.40;99.90;;;;;;5137227;27;20482;-82
2022/10/13 07:30:25;;;;;;;49.92;29.70;;;11.40;99.90;;;;;;5155359;27;20050;-81
2022/10/13 07:32:52;;;;;;;47.85;28.55;;;11.50;99.90;;;;;;5155686;27;20168;-81
2022/10/13 07:35:18;;;;;;;48.45;27.88;;;11.50;99.90;;;;;;5155200;27;20046;-81
2022/10/13 07:37:44;;;;;;;48.85;28.17;;;11.60;99.90;;;;;;5136601;27;20046;-81
2022/10/13 07:40:10;;;;;;;46.13;28.20;;;11.60;99.90;;;;;;5155542;27;20184;-81
2022/10/13 07:42:36;;;;;;;47.72;27.73;;;11.60;99.90;;;;;;5139747;27;20062;-82
2022/10/13 07:45:03;;;;;;;66.50;32.67;;;11.70;99.90;;;;;;5137801;27;20063;-81
2022/10/13 07:47:29;;;;;;;58.45;33.60;;;11.70;99.90;;;;;;5136837;27;20043;-81
2022/10/13 07:49:55;;;;;;;59.08;33.38;;;11.70;99.90;;;;;;5154940;27;20048;-80
2022/10/13 07:52:21;;;;;;;65.25;33.97;;;11.70;99.90;;;;;;5119670;27;20059;-81
2022/10/13 07:54:48;;;;;;;72.43;37.08;;;11.80;99.90;;;;;;5137274;27;20046;-80
2022/10/13 07:57:14;;;;;;;65.50;34.33;;;11.80;99.90;;;;;;5136614;27;20054;-80
2022/10/13 07:59:40;;;;;;;63.08;34.10;;;11.80;99.90;;;;;;5136753;27;20042;-80
2022/10/13 08:02:07;;;;;;;69.88;34.88;;;11.80;99.90;;;;;;5136373;27;20393;-81
2022/10/13 08:04:34;;;;;;;63.70;35.72;;;11.80;99.90;;;;;;5136187;27;20057;-81
2022/10/13 08:07:01;;;;;;;75.32;36.67;;;11.80;99.90;;;;;;5155140;27;20085;-82
2022/10/13 08:09:27;;;;;;;77.78;38.20;;;11.80;99.90;;;;;;5154476;27;20050;-82
2022/10/13 08:11:53;;;;;;;79.15;38.95;;;11.80;99.90;;;;;;5135573;27;20047;-81
2022/10/13 08:14:20;;;;;;;75.25;36.42;;;11.80;99.90;;;;;;5154414;27;20447;-81
2022/10/13 08:16:46;;;;;;;79.88;37.97;;;11.90;99.90;;;;;;5135665;27;20046;-82
2022/10/13 08:19:13;;;;;;;74.20;36.90;;;11.90;99.90;;;;;;5154500;27;20120;-81
2022/10/13 08:21:39;;;;;;;67.60;36.10;;;12.00;99.90;;;;;;5135833;27;20043;-82
2022/10/13 08:24:07;;;;;;;77.80;40.00;;;12.00;99.90;;;;;;5154244;27;20050;-82
2022/10/13 08:26:33;;;;;;;70.85;38.45;;;12.10;99.90;;;;;;5154347;27;20047;-81
2022/10/13 08:28:59;;;;;;;66.18;37.03;;;12.10;99.90;;;;;;5135687;27;20043;-82
2022/10/13 08:31:25;;;;;;;79.30;40.40;;;12.20;99.90;;;;;;5154506;27;20549;-80
2022/10/13 08:33:51;;;;;;;76.75;39.00;;;12.20;99.90;;;;;;5135724;27;20059;-81
2022/10/13 08:36:18;;;;;;;77.03;39.05;;;12.30;99.90;;;;;;5154295;27;20482;-81
2022/10/13 08:38:44;;;;;;;78.15;38.15;;;12.30;99.90;;;;;;5131820;27;20089;-81
2022/10/13 08:41:26;;;;;;;79.22;38.92;;;12.30;99.90;;;;;;5133281;27;20055;-81
2022/10/13 08:43:56;;;;;;;84.80;40.38;;;12.40;99.90;;;;;;5131756;27;20616;-80
2022/10/13 08:46:29;;;;;;;80.18;40.80;;;12.40;99.90;;;;;;5134231;27;20059;-81
2022/10/13 08:48:57;;;;;;;88.07;41.90;;;12.40;99.90;;;;;;5114863;27;20298;-81
2022/10/13 08:51:23;;;;;;;78.65;39.67;;;12.50;99.90;;;;;;5131977;27;20398;-81
2022/10/13 08:53:49;;;;;;;79.80;39.83;;;12.50;99.90;;;;;;5132752;27;20122;-81
2022/10/13 08:56:23;;;;;;;78.35;39.58;;;12.60;99.90;;;;;;5132898;27;20051;-81
2022/10/13 08:58:50;;;;;;;79.80;41.75;;;12.60;99.90;;;;;;5132761;27;20410;-81
2022/10/13 09:01:22;;;;;;;65.90;37.88;;;12.60;99.90;;;;;;5131939;27;20430;-81
2022/10/13 09:04:18;;;;;;;76.15;38.53;;;12.70;99.90;;;;;;5132562;27;20055;-81
2022/10/13 09:06:50;;;;;;;78.93;42.15;;;12.70;99.90;;;;;;5132950;27;20071;-81
2022/10/13 09:09:16;;;;;;;76.60;38.78;;;12.70;99.90;;;;;;5132574;27;20138;-81
2022/10/13 09:11:49;;;;;;;67.43;39.05;;;12.80;99.90;;;;;;5132615;27;20100;-81
2022/10/13 09:14:31;;;;;;;77.75;40.67;;;12.80;99.90;;;;;;5131130;27;20089;-81
2022/10/13 09:17:16;;;;;;;77.32;40.63;;;12.90;99.90;;;;;;5132567;27;20053;-81
2022/10/13 09:19:42;;;;;;;75.57;40.13;;;12.90;99.90;;;;;;5131069;27;20685;-81
2022/10/13 09:22:35;;;;;;;82.82;40.13;;;12.90;99.90;;;;;;5132516;27;20058;-80
2022/10/13 09:25:10;;;;;;;85.47;42.80;;;12.90;99.90;;;;;;5132302;27;20058;-80
2022/10/13 09:27:46;;;;;;;;;;;12.90;99.90;;;;;;5132601;27;20047;-81
2022/10/13 09:30:41;;;;;;;64.47;37.45;;;13.00;99.90;;;;;;5131722;27;19988;-80
2022/10/13 09:33:07;;;;;;;81.03;41.83;;;13.00;99.90;;;;;;5133204;27;20035;-81
2022/10/13 09:35:38;;;;;;;73.28;39.17;;;13.00;99.90;;;;;;5131415;27;20163;-81
2022/10/13 09:38:04;;;;;;;61.92;36.67;;;13.00;99.90;;;;;;5132470;27;20081;-81
2022/10/13 09:40:31;;;;;;;69.00;37.03;;;13.00;99.90;;;;;;5152641;27;20050;-80
2022/10/13 09:42:58;;;;;;;60.28;35.28;;;13.10;99.90;;;;;;5134485;27;20050;-80
2022/10/13 09:45:26;;;;;;;78.10;38.92;;;13.00;99.90;;;;;;5133903;27;20102;-80
2022/10/13 09:47:58;;;;;;;65.45;37.17;;;13.00;99.90;;;;;;5152792;27;20521;-80
2022/10/13 09:50:27;;;;;;;62.63;36.25;;;13.00;99.90;;;;;;5153175;27;20138;-80
2022/10/13 09:53:24;;;;;;;70.65;37.20;;;13.10;99.90;;;;;;5152768;27;20047;-80
2022/10/13 09:56:06;;;;;;;68.28;36.60;;;13.10;99.90;;;;;;5134405;27;20051;-80
2022/10/13 09:58:36;;;;;;;73.70;39.00;;;13.10;99.90;;;;;;5134213;27;20055;-80
2022/10/13 10:01:03;;;;;;;59.13;34.78;;;13.10;99.90;;;;;;5152538;27;20065;-81
2022/10/13 10:03:36;;;;;;;65.05;36.00;;;13.10;99.90;;;;;;5133788;27;20061;-81
2022/10/13 10:06:06;;;;;;;72.03;38.08;;;13.10;99.90;;;;;;5153037;27;20043;-80
2022/10/13 10:08:45;;;;;;;74.78;38.40;;;13.20;99.90;;;;;;5151902;27;20050;-80
2022/10/13 10:11:38;;;;;;;59.75;34.00;;;13.20;99.90;;;;;;5153431;27;20050;-81
2022/10/13 10:14:29;;;;;;;63.25;34.90;;;13.20;99.90;;;;;;5153928;27;20054;-79
2022/10/13 10:17:01;;;;;;;60.03;33.03;;;13.30;99.90;;;;;;5125583;27;20096;-80
2022/10/13 10:19:46;;;;;;;64.90;35.03;;;13.30;99.90;;;;;;5153258;27;20043;-80
2022/10/13 10:22:33;;;;;;;61.05;33.88;;;13.30;99.90;;;;;;5134838;27;20058;-80
2022/10/13 10:25:21;;;;;;;69.97;36.95;;;13.40;99.90;;;;;;5137632;27;20054;-81
2022/10/13 10:28:06;;;;;;;66.15;34.38;;;13.40;99.90;;;;;;5152453;27;20050;-80
2022/10/13 10:30:36;;;;;;;65.20;33.47;;;13.50;99.90;;;;;;5152397;27;20133;-80
2022/10/13 10:33:20;;;;;;;57.58;32.35;;;13.50;99.90;;;;;;5119441;27;20142;-80
2022/10/13 10:36:15;;;;;;;49.58;32.88;;;13.60;99.90;;;;;;5153545;27;20596;-81
2022/10/13 10:39:31;;;;;;;69.28;36.63;;;13.60;99.90;;;;;;5133294;27;20081;-80
2022/10/13 10:42:17;;;;;;;;;;;13.70;99.90;;;;;;5031438;28;20057;-80
2022/10/13 10:44:46;;;;;;;53.47;28.87;;;13.80;99.90;;;;;;5144343;27;19926;-81
2022/10/13 10:47:23;;;;;;;56.88;31.75;;;13.90;99.90;;;;;;5152365;27;20280;-80
2022/10/13 10:49:54;;;;;;;51.13;28.77;;;14.00;99.90;;;;;;5152368;27;20610;-80
2022/10/13 10:52:35;;;;;;;50.58;27.40;;;14.10;99.90;;;;;;5116926;27;20390;-81
2022/10/13 10:55:23;;;;;;;41.17;23.95;;;14.20;99.90;;;;;;5152108;27;20979;-81
2022/10/13 10:57:49;;;;;;;42.90;24.98;;;14.20;99.90;;;;;;5081990;27;20050;-80
2022/10/13 11:00:20;;;;;;;37.80;22.80;;;14.30;99.90;;;;;;5133233;27;20108;-80
2022/10/13 11:03:05;;;;;;;37.83;22.35;;;14.40;99.90;;;;;;5116504;27;20046;-80
2022/10/13 11:05:56;;;;;;;38.45;22.08;;;14.50;99.90;;;;;;5152105;27;20053;-81
2022/10/13 11:08:42;;;;;;;37.20;21.25;;;14.60;99.90;;;;;;5133652;27;20061;-81
2022/10/13 11:11:27;;;;;;;31.50;18.50;;;14.60;99.90;;;;;;5134125;27;20046;-81
2022/10/13 11:13:58;;;;;;;33.35;18.27;;;14.70;99.90;;;;;;5152381;27;20109;-80
2022/10/13 11:16:52;;;;;;;28.70;17.73;;;14.80;99.90;;;;;;5152787;27;20487;-81
2022/10/13 11:19:28;;;;;;;29.13;15.18;;;14.90;99.90;;;;;;5152173;27;20047;-80
2022/10/13 11:21:57;;;;;;;27.58;16.88;;;15.00;99.90;;;;;;5155445;27;20054;-80
2022/10/13 11:24:41;;;;;;;20.52;14.73;;;15.00;99.90;;;;;;5136749;27;20043;-81
2022/10/13 11:27:07;;;;;;;28.13;16.10;;;14.90;99.90;;;;;;5136616;27;20135;-81
2022/10/13 11:29:45;;;;;;;24.58;14.65;;;14.90;99.90;;;;;;5156276;27;20043;-81
2022/10/13 11:32:29;;;;;;;23.90;15.30;;;14.90;99.90;;;;;;5161222;27;20505;-81
2022/10/13 11:35:04;;;;;;;21.38;14.45;;;14.80;99.90;;;;;;5139001;27;20043;-81
2022/10/13 11:37:57;;;;;;;27.58;14.75;;;14.90;99.90;;;;;;5155485;27;20522;-81
2022/10/13 11:40:24;;;;;;;25.05;14.57;;;14.80;99.90;;;;;;5137012;27;20039;-81
2022/10/13 11:43:02;;;;;;;25.60;14.40;;;14.90;99.90;;;;;;5136307;27;20512;-81
2022/10/13 11:45:33;;;;;;;26.17;14.25;;;14.90;99.90;;;;;;5119935;27;20391;-81
2022/10/13 11:47:59;;;;;;;23.55;14.55;;;14.90;99.90;;;;;;5155146;27;20070;-81
2022/10/13 11:50:34;;;;;;;23.58;13.68;;;14.90;99.90;;;;;;5155259;27;20085;-80
2022/10/13 11:53:15;;;;;;;20.92;11.85;;;15.00;99.90;;;;;;5136695;27;20046;-81
2022/10/13 11:55:57;;;;;;;21.00;10.65;;;15.00;99.90;;;;;;5137449;27;20678;-81
2022/10/13 11:58:32;;;;;;;21.45;10.68;;;15.10;99.90;;;;;;5137764;27;20072;-81
2022/10/13 12:01:12;;;;;;;17.65;9.75;;;15.10;99.90;;;;;;5137584;27;20046;-81
2022/10/13 12:03:42;;;;;;;18.35;10.55;;;15.20;99.90;;;;;;5138336;27;20058;-80
2022/10/13 12:06:35;;;;;;;18.48;9.80;;;15.40;99.90;;;;;;5136554;27;20050;-81
2022/10/13 12:09:15;;;;;;;15.25;8.27;;;15.60;99.90;;;;;;5136030;27;20055;-81
2022/10/13 12:11:42;;;;;;;16.17;8.07;;;15.90;99.90;;;;;;5136008;27;20042;-80
2022/10/13 12:14:23;;;;;;;14.43;6.95;;;16.10;99.90;;;;;;5136377;27;20422;-80
2022/10/13 12:16:58;;;;;;;14.65;6.53;;;16.40;99.90;;;;;;5156465;27;20046;-80
2022/10/13 12:19:26;;;;;;;13.77;5.53;;;16.50;99.90;;;;;;5135769;27;20066;-80
2022/10/13 12:21:55;;;;;;;17.33;5.93;;;16.40;99.90;;;;;;5135804;27;20046;-81
2022/10/13 12:24:23;;;;;;;10.85;4.20;;;16.40;99.90;;;;;;5136590;27;20051;-81
2022/10/13 12:26:50;;;;;;;11.85;1.83;;;16.20;99.90;;;;;;5155641;27;20034;-81
2022/10/13 12:29:17;;;;;;;12.43;2.25;;;16.10;99.90;;;;;;5154274;27;20055;-81
2022/10/13 12:31:45;;;;;;;8.60;2.38;;;16.10;99.90;;;;;;5153631;27;20047;-80
2022/10/13 12:34:31;;;;;;;10.82;2.65;;;16.10;99.90;;;;;;5154257;27;20142;-80
2022/10/13 12:37:01;;;;;;;7.82;2.05;;;16.30;99.90;;;;;;5135303;27;20082;-80
2022/10/13 12:39:28;;;;;;;10.38;2.10;;;16.40;99.90;;;;;;5131808;27;20142;-81
2022/10/13 12:41:56;;;;;;;7.82;1.92;;;16.40;99.90;;;;;;5133544;27;20146;-80
2022/10/13 12:44:25;;;;;;;9.82;2.22;;;16.50;99.90;;;;;;5114326;27;20043;-80
2022/10/13 12:46:57;;;;;;;9.55;2.10;;;16.70;99.90;;;;;;5131859;27;20089;-81
2022/10/13 12:49:27;;;;;;;9.13;1.42;;;17.20;99.90;;;;;;5149009;27;20057;-80
2022/10/13 12:52:02;;;;;;;10.00;1.50;;;17.60;99.90;;;;;;5133255;27;20050;-81
2022/10/13 12:54:32;;;;;;;8.27;1.52;;;17.80;99.90;;;;;;5133083;27;20043;-80
2022/10/13 12:57:03;;;;;;;8.70;2.15;;;17.60;99.90;;;;;;5133165;27;20122;-80
2022/10/13 12:59:30;;;;;;;8.93;1.98;;;17.50;99.90;;;;;;5133112;27;20125;-80
2022/10/13 13:02:17;;;;;;;9.55;1.65;;;17.60;99.90;;;;;;5131955;27;20055;-79
2022/10/13 13:04:43;;;;;;;4.50;1.20;;;17.40;99.90;;;;;;5133037;27;20051;-80